createdAt,value
2019-03-16T00:00:53.237Z,77030.85
2019-03-16T00:03:22.465Z,77029.84
2019-03-16T00:05:51.730Z,77025.79
2019-03-16T00:08:20.932Z,77012.63
2019-03-16T00:10:50.165Z,77020.73
2019-03-16T00:13:19.355Z,77020.73
2019-03-16T00:15:48.697Z,77026.80
2019-03-16T00:18:17.893Z,77036.92
2019-03-16T00:20:47.112Z,77044.01
2019-03-16T00:23:16.276Z,77053.13
2019-03-16T00:25:45.446Z,77054.13
2019-03-16T00:28:14.713Z,77060.20
2019-03-16T00:30:45.172Z,77060.20
2019-03-16T00:33:14.370Z,77061.22
2019-03-16T00:35:43.544Z,77056.16
2019-03-16T00:38:12.775Z,77066.28
2019-03-16T00:40:42.173Z,77058.19
2019-03-16T00:43:11.370Z,77067.29
2019-03-16T00:45:40.619Z,77070.33
2019-03-16T00:48:09.781Z,77090.58
2019-03-16T00:50:39.046Z,77094.63
2019-03-16T00:53:08.244Z,77108.80
2019-03-16T00:55:37.551Z,77105.75
2019-03-16T00:58:06.819Z,77108.80
2019-03-16T01:00:36.054Z,77117.91
2019-03-16T01:03:08.354Z,77118.92
2019-03-16T01:05:38.034Z,77122.97
2019-03-16T01:08:07.286Z,77137.14
2019-03-16T01:10:36.766Z,77143.21
2019-03-16T01:13:06.136Z,77147.26
2019-03-16T01:15:35.540Z,77158.39
2019-03-16T01:18:05.027Z,77159.41
2019-03-16T01:20:34.171Z,77165.48
2019-03-16T01:23:03.465Z,77163.45
2019-03-16T01:25:32.742Z,77170.55
2019-03-16T01:28:05.377Z,77177.63
2019-03-16T01:30:34.596Z,77183.70
2019-03-16T01:33:12.980Z,77184.71
2019-03-16T01:36:00.123Z,77179.66
2019-03-16T01:38:29.356Z,77183.70
2019-03-16T01:40:58.681Z,77197.88
2019-03-16T01:43:28.009Z,77214.07
2019-03-16T01:45:57.274Z,77220.14
2019-03-16T01:48:26.534Z,77212.05
2019-03-16T01:50:55.748Z,77216.09
2019-03-16T01:53:25.037Z,77208.00
2019-03-16T01:55:54.179Z,77217.11
2019-03-16T01:58:23.420Z,77213.06
2019-03-16T02:00:52.654Z,77221.16
2019-03-16T02:03:23.568Z,77223.18
2019-03-16T02:05:52.737Z,77228.24
2019-03-16T02:08:22.006Z,77234.31
2019-03-16T02:10:54.043Z,77231.28
2019-03-16T02:13:23.259Z,77243.42
2019-03-16T02:15:52.438Z,77240.39
2019-03-16T02:18:21.683Z,77250.52
2019-03-16T02:20:50.944Z,77256.59
2019-03-16T02:23:20.189Z,77247.47
2019-03-16T02:25:50.217Z,77240.39
2019-03-16T02:28:19.441Z,77235.33
2019-03-16T02:30:48.968Z,77241.41
2019-03-16T02:33:18.213Z,77236.34
2019-03-16T02:35:47.706Z,77248.48
2019-03-16T02:38:16.913Z,77251.52
2019-03-16T02:40:46.533Z,77257.59
2019-03-16T02:43:15.795Z,77251.52
2019-03-16T02:45:44.999Z,77258.61
2019-03-16T02:48:14.239Z,77258.61
2019-03-16T02:50:43.852Z,77254.56
2019-03-16T02:53:13.135Z,77264.69
2019-03-16T02:55:42.345Z,77261.65
2019-03-16T02:58:12.001Z,77264.69
2019-03-16T03:00:41.278Z,77262.66
2019-03-16T03:03:28.103Z,77257.59
2019-03-16T03:05:43.534Z,77270.76
2019-03-16T03:08:13.254Z,77282.91
2019-03-16T03:10:42.402Z,77279.87
2019-03-16T03:13:13.750Z,77282.91
2019-03-16T03:15:42.883Z,77300.11
2019-03-16T03:18:14.991Z,77315.30
2019-03-16T03:20:44.220Z,77317.33
2019-03-16T03:23:13.496Z,77318.34
2019-03-16T03:25:42.713Z,77316.31
2019-03-16T03:28:12.864Z,77313.27
2019-03-16T03:30:42.108Z,77303.16
2019-03-16T03:33:11.374Z,77307.20
2019-03-16T03:35:40.505Z,77309.23
2019-03-16T03:38:09.760Z,77314.28
2019-03-16T03:40:39.092Z,77324.41
2019-03-16T03:43:08.267Z,77324.41
2019-03-16T03:45:38.363Z,77320.36
2019-03-16T03:48:07.636Z,77317.33
2019-03-16T03:50:37.034Z,77322.39
2019-03-16T03:53:06.242Z,77319.34
2019-03-16T03:55:35.694Z,77319.34
2019-03-16T03:58:04.843Z,77313.27
2019-03-16T04:00:34.087Z,77311.25
2019-03-16T04:03:03.297Z,77311.25
2019-03-16T04:05:32.555Z,77306.19
2019-03-16T04:08:01.834Z,77305.17
2019-03-16T04:10:31.254Z,77301.13
2019-03-16T04:13:03.751Z,77314.28
2019-03-16T04:15:32.972Z,77314.28
2019-03-16T04:18:02.209Z,77319.34
2019-03-16T04:20:31.476Z,77313.27
2019-03-16T04:23:00.629Z,77313.27
2019-03-16T04:25:32.152Z,77311.25
2019-03-16T04:28:01.379Z,77307.20
2019-03-16T04:30:30.777Z,77302.14
2019-03-16T04:33:01.746Z,77312.27
2019-03-16T04:35:31.165Z,77310.23
2019-03-16T04:38:03.069Z,77310.23
2019-03-16T04:40:32.283Z,77305.17
2019-03-16T04:43:01.824Z,77311.25
2019-03-16T04:45:31.093Z,77309.23
2019-03-16T04:48:02.150Z,77312.27
2019-03-16T04:50:31.346Z,77310.23
2019-03-16T04:53:00.646Z,77304.16
2019-03-16T04:55:29.800Z,77308.22
2019-03-16T04:57:59.102Z,77308.22
2019-03-16T05:00:30.643Z,77302.14
2019-03-16T05:02:59.772Z,77307.20
2019-03-16T05:05:29.264Z,77302.14
2019-03-16T05:08:01.263Z,77303.16
2019-03-16T05:10:30.421Z,77301.13
2019-03-16T05:13:02.598Z,77295.05
2019-03-16T05:15:31.822Z,77293.03
2019-03-16T05:18:02.132Z,77288.98
2019-03-16T05:20:31.389Z,77296.06
2019-03-16T05:23:00.614Z,77294.04
2019-03-16T05:25:29.885Z,77295.05
2019-03-16T05:27:59.022Z,77296.06
2019-03-16T05:30:27.355Z,77297.08
2019-03-16T05:32:56.520Z,77305.17
2019-03-16T05:35:25.800Z,77295.05
2019-03-16T05:37:55.031Z,77297.08
2019-03-16T05:40:24.254Z,77297.08
2019-03-16T05:42:53.469Z,77294.04
2019-03-16T05:45:25.912Z,77300.11
2019-03-16T05:47:55.204Z,77293.03
2019-03-16T05:50:24.375Z,77297.08
2019-03-16T05:52:54.501Z,77297.08
2019-03-16T05:55:23.812Z,77303.16
2019-03-16T05:57:55.913Z,77304.16
2019-03-16T06:00:25.217Z,77299.10
2019-03-16T06:02:54.503Z,77298.09
2019-03-16T06:05:23.674Z,77305.17
2019-03-16T06:07:52.925Z,77301.13
2019-03-16T06:10:22.157Z,77306.19
2019-03-16T06:12:51.423Z,77306.19
2019-03-16T06:15:21.305Z,77305.17
2019-03-16T06:17:50.441Z,77314.28
2019-03-16T06:20:19.818Z,77314.28
2019-03-16T06:22:49.030Z,77308.22
2019-03-16T06:25:20.685Z,77316.31
2019-03-16T06:27:49.974Z,77308.22
2019-03-16T06:30:20.982Z,77312.27
2019-03-16T06:32:50.445Z,77298.09
2019-03-16T06:35:26.355Z,77296.06
2019-03-16T06:37:52.927Z,77282.91
2019-03-16T06:40:22.202Z,77278.86
2019-03-16T06:42:51.389Z,77271.77
2019-03-16T06:45:20.665Z,77268.73
2019-03-16T06:47:50.676Z,77270.76
2019-03-16T06:50:20.133Z,77260.64
2019-03-16T06:52:49.450Z,77274.80
2019-03-16T06:55:20.864Z,77259.63
2019-03-16T06:57:50.303Z,77256.59
2019-03-16T07:00:19.504Z,77260.64
2019-03-16T07:02:48.780Z,77253.55
2019-03-16T07:05:20.732Z,77246.46
2019-03-16T07:07:48.876Z,77238.37
2019-03-16T07:10:18.129Z,77240.39
2019-03-16T07:12:47.375Z,77233.30
2019-03-16T07:15:16.777Z,77225.20
2019-03-16T07:17:46.075Z,77212.05
2019-03-16T07:20:15.584Z,77200.91
2019-03-16T07:22:45.331Z,77187.75
2019-03-16T07:25:14.763Z,77172.56
2019-03-16T07:27:44.031Z,77167.50
2019-03-16T07:30:32.301Z,77150.30
2019-03-16T07:33:01.543Z,77138.15
2019-03-16T07:35:30.761Z,77116.89
2019-03-16T07:38:00.177Z,77095.63
2019-03-16T07:40:30.848Z,77071.34
2019-03-16T07:43:00.280Z,77059.20
2019-03-16T07:45:29.427Z,77029.84
2019-03-16T07:47:58.767Z,77021.74
2019-03-16T07:50:28.071Z,77009.59
2019-03-16T07:52:57.338Z,77016.68
2019-03-16T07:55:27.575Z,76998.46
2019-03-16T07:57:57.267Z,76981.25
2019-03-16T08:00:29.776Z,76978.22
2019-03-16T08:02:59.211Z,76977.20
2019-03-16T08:05:28.760Z,76977.20
2019-03-16T08:07:58.007Z,76961.01
2019-03-16T08:10:27.502Z,76955.95
2019-03-16T08:12:57.048Z,76965.05
2019-03-16T08:15:28.054Z,76963.03
2019-03-16T08:17:57.309Z,76955.95
2019-03-16T08:20:26.546Z,76952.91
2019-03-16T08:22:56.166Z,76953.92
2019-03-16T08:25:25.415Z,76954.94
2019-03-16T08:27:55.018Z,76944.81
2019-03-16T08:30:24.322Z,76947.84
2019-03-16T08:32:54.083Z,76948.86
2019-03-16T08:35:23.382Z,76954.94
2019-03-16T08:37:52.618Z,76951.90
2019-03-16T08:40:21.911Z,76954.94
2019-03-16T08:42:51.547Z,76954.94
2019-03-16T08:45:21.141Z,76944.81
2019-03-16T08:47:53.066Z,76956.95
2019-03-16T08:50:22.436Z,76948.86
2019-03-16T08:52:53.894Z,76953.92
2019-03-16T08:55:23.674Z,76946.84
2019-03-16T08:58:05.614Z,76941.78
2019-03-16T09:00:26.223Z,76940.77
2019-03-16T09:02:55.421Z,76939.75
2019-03-16T09:05:24.614Z,76935.70
2019-03-16T09:07:54.195Z,76934.69
2019-03-16T09:10:23.564Z,76934.69
2019-03-16T09:12:55.270Z,76931.66
2019-03-16T09:15:27.155Z,76924.56
2019-03-16T09:17:56.439Z,76915.45
2019-03-16T09:20:29.913Z,76905.34
2019-03-16T09:22:59.682Z,76903.31
2019-03-16T09:25:28.905Z,76899.27
2019-03-16T09:27:58.086Z,76900.28
2019-03-16T09:30:27.275Z,76900.28
2019-03-16T09:32:56.479Z,76890.16
2019-03-16T09:35:25.707Z,76901.29
2019-03-16T09:37:54.924Z,76897.23
2019-03-16T09:40:24.186Z,76878.00
2019-03-16T09:42:53.340Z,76895.22
2019-03-16T09:45:22.977Z,76878.00
2019-03-16T09:47:52.556Z,76859.79
2019-03-16T09:50:22.187Z,76837.52
2019-03-16T09:52:51.453Z,76822.34
2019-03-16T09:55:24.647Z,76812.22
2019-03-16T09:57:54.123Z,76794.00
2019-03-16T10:00:23.388Z,76787.92
2019-03-16T10:02:55.724Z,76781.85
2019-03-16T10:05:24.978Z,76769.70
2019-03-16T10:07:56.414Z,76766.67
2019-03-16T10:10:25.697Z,76754.52
2019-03-16T10:12:54.953Z,76726.19
2019-03-16T10:15:24.195Z,76731.24
2019-03-16T10:17:53.719Z,76719.09
2019-03-16T10:20:23.012Z,76714.03
2019-03-16T10:22:52.558Z,76701.89
2019-03-16T10:25:21.729Z,76691.77
2019-03-16T10:27:50.958Z,76704.92
2019-03-16T10:30:22.195Z,76719.09
2019-03-16T10:32:51.389Z,76721.13
2019-03-16T10:35:20.860Z,76718.09
2019-03-16T10:37:50.121Z,76707.96
2019-03-16T10:40:19.459Z,76689.75
2019-03-16T10:42:51.156Z,76696.83
2019-03-16T10:45:20.490Z,76694.80
2019-03-16T10:47:52.233Z,76697.84
2019-03-16T10:50:21.444Z,76704.92
2019-03-16T10:52:53.717Z,76724.16
2019-03-16T10:55:23.073Z,76720.11
2019-03-16T10:57:52.450Z,76726.19
2019-03-16T11:00:21.955Z,76734.28
2019-03-16T11:02:53.466Z,76731.24
2019-03-16T11:05:23.606Z,76726.19
2019-03-16T11:07:52.847Z,76714.03
2019-03-16T11:10:24.323Z,76706.95
2019-03-16T11:12:53.508Z,76694.80
2019-03-16T11:15:22.688Z,76695.81
2019-03-16T11:17:51.962Z,76699.87
2019-03-16T11:20:21.413Z,76694.80
2019-03-16T11:22:52.289Z,76701.89
2019-03-16T11:25:21.603Z,76718.09
2019-03-16T11:27:50.809Z,76714.03
2019-03-16T11:30:20.392Z,76720.11
2019-03-16T11:33:09.008Z,76732.25
2019-03-16T11:35:38.491Z,76737.31
2019-03-16T11:38:07.764Z,76725.17
2019-03-16T11:40:37.035Z,76717.08
2019-03-16T11:43:06.499Z,76738.33
2019-03-16T11:45:35.712Z,76734.28
2019-03-16T11:48:05.006Z,76722.13
2019-03-16T11:50:34.234Z,76725.17
2019-03-16T11:53:03.719Z,76731.24
2019-03-16T11:55:35.281Z,76728.20
2019-03-16T11:58:04.495Z,76734.28
2019-03-16T12:00:34.044Z,76733.27
2019-03-16T12:03:03.274Z,76730.23
2019-03-16T12:05:35.646Z,76719.09
2019-03-16T12:08:04.730Z,76719.09
2019-03-16T12:10:35.645Z,76712.02
2019-03-16T12:13:16.425Z,76722.13
2019-03-16T12:15:36.099Z,76718.09
2019-03-16T12:18:05.267Z,76724.16
2019-03-16T12:20:37.050Z,76724.16
2019-03-16T12:23:06.268Z,76723.14
2019-03-16T12:25:35.502Z,76733.27
2019-03-16T12:28:07.716Z,76738.33
2019-03-16T12:30:37.146Z,76729.22
2019-03-16T12:33:06.379Z,76730.23
2019-03-16T12:35:37.595Z,76724.16
2019-03-16T12:38:06.817Z,76727.20
2019-03-16T12:40:36.015Z,76716.06
2019-03-16T12:43:05.351Z,76711.00
2019-03-16T12:45:34.559Z,76721.13
2019-03-16T12:48:04.108Z,76708.98
2019-03-16T12:50:33.592Z,76701.89
2019-03-16T12:53:05.414Z,76708.98
2019-03-16T12:55:35.500Z,76700.88
2019-03-16T12:58:04.774Z,76693.80
2019-03-16T13:00:35.725Z,76696.83
2019-03-16T13:03:05.030Z,76703.91
2019-03-16T13:05:37.455Z,76701.89
2019-03-16T13:08:06.982Z,76691.77
2019-03-16T13:10:37.269Z,76694.80
2019-03-16T13:13:09.176Z,76695.81
2019-03-16T13:15:41.579Z,76692.78
2019-03-16T13:18:13.875Z,76677.59
2019-03-16T13:20:43.044Z,76687.72
2019-03-16T13:23:25.237Z,76661.41
2019-03-16T13:25:54.458Z,76667.48
2019-03-16T13:28:29.270Z,76664.44
2019-03-16T13:31:00.519Z,76667.48
2019-03-16T13:33:29.785Z,76669.50
2019-03-16T13:36:00.926Z,76668.48
2019-03-16T13:38:30.257Z,76666.47
2019-03-16T13:40:59.803Z,76657.36
2019-03-16T13:43:28.892Z,76656.34
2019-03-16T13:45:58.174Z,76652.30
2019-03-16T13:48:27.674Z,76667.48
2019-03-16T13:50:56.940Z,76656.34
2019-03-16T13:53:29.182Z,76663.43
2019-03-16T13:55:58.993Z,76657.36
2019-03-16T13:58:31.305Z,76657.36
2019-03-16T14:01:03.038Z,76670.52
2019-03-16T14:03:32.259Z,76665.45
2019-03-16T14:06:01.722Z,76661.41
2019-03-16T14:08:34.030Z,76657.36
2019-03-16T14:11:03.270Z,76656.34
2019-03-16T14:13:32.640Z,76651.28
2019-03-16T14:16:01.873Z,76649.27
2019-03-16T14:18:31.125Z,76640.16
2019-03-16T14:21:00.358Z,76648.25
2019-03-16T14:23:29.541Z,76646.22
2019-03-16T14:25:58.663Z,76643.19
2019-03-16T14:28:28.130Z,76624.97
2019-03-16T14:30:57.807Z,76622.95
2019-03-16T14:33:27.259Z,76613.84
2019-03-16T14:35:56.450Z,76620.92
2019-03-16T14:38:25.809Z,76611.81
2019-03-16T14:40:54.835Z,76607.77
2019-03-16T14:43:24.038Z,76602.70
2019-03-16T14:45:53.515Z,76607.77
2019-03-16T14:48:23.302Z,76608.78
2019-03-16T14:50:52.808Z,76596.63
2019-03-16T14:53:22.060Z,76590.56
2019-03-16T14:55:51.225Z,76600.68
2019-03-16T14:58:22.818Z,76600.68
2019-03-16T15:00:52.343Z,76600.68
2019-03-16T15:03:21.762Z,76611.81
2019-03-16T15:05:50.947Z,76609.79
2019-03-16T15:08:20.979Z,76592.58
2019-03-16T15:10:50.346Z,76593.59
2019-03-16T15:13:22.489Z,76596.63
2019-03-16T15:15:51.687Z,76590.56
2019-03-16T15:18:20.903Z,76578.41
2019-03-16T15:20:50.353Z,76565.25
2019-03-16T15:23:19.520Z,76557.16
2019-03-16T15:25:48.715Z,76550.08
2019-03-16T15:28:22.041Z,76553.11
2019-03-16T15:30:51.946Z,76555.13
2019-03-16T15:33:24.177Z,76540.97
2019-03-16T15:35:53.413Z,76534.89
2019-03-16T15:38:22.688Z,76531.86
2019-03-16T15:40:51.893Z,76525.78
2019-03-16T15:43:21.335Z,76522.75
2019-03-16T15:45:51.601Z,76521.73
2019-03-16T15:48:20.812Z,76516.67
2019-03-16T15:50:50.125Z,76519.72
2019-03-16T15:53:19.346Z,76520.73
2019-03-16T15:55:48.704Z,76518.70
2019-03-16T15:58:17.913Z,76513.64
2019-03-16T16:00:47.242Z,76511.62
2019-03-16T16:03:16.513Z,76503.52
2019-03-16T16:05:45.715Z,76504.53
2019-03-16T16:08:15.086Z,76494.41
2019-03-16T16:10:44.465Z,76501.50
2019-03-16T16:13:13.709Z,76495.42
2019-03-16T16:15:42.916Z,76491.38
2019-03-16T16:18:12.126Z,76497.45
2019-03-16T16:20:41.244Z,76498.45
2019-03-16T16:23:10.519Z,76498.45
2019-03-16T16:25:41.163Z,76495.42
2019-03-16T16:28:10.823Z,76502.51
2019-03-16T16:30:39.962Z,76498.45
2019-03-16T16:33:10.624Z,76500.48
2019-03-16T16:35:39.893Z,76510.61
2019-03-16T16:38:09.202Z,76501.50
2019-03-16T16:40:38.490Z,76499.47
2019-03-16T16:43:08.538Z,76501.50
2019-03-16T16:45:40.737Z,76500.48
2019-03-16T16:48:09.946Z,76503.52
2019-03-16T16:50:39.297Z,76508.58
2019-03-16T16:53:08.728Z,76503.52
2019-03-16T16:55:41.453Z,76496.44
2019-03-16T16:58:10.685Z,76502.51
2019-03-16T17:00:39.895Z,76498.45
2019-03-16T17:03:09.129Z,76500.48
2019-03-16T17:05:38.354Z,76500.48
2019-03-16T17:08:07.603Z,76505.55
2019-03-16T17:10:36.821Z,76498.45
2019-03-16T17:13:06.052Z,76494.41
2019-03-16T17:15:35.275Z,76503.52
2019-03-16T17:18:06.468Z,76507.56
2019-03-16T17:20:36.890Z,76509.59
2019-03-16T17:23:06.342Z,76495.42
2019-03-16T17:25:35.591Z,76492.39
2019-03-16T17:28:24.700Z,76489.35
2019-03-16T17:30:58.287Z,76489.35
2019-03-16T17:33:33.601Z,76493.40
2019-03-16T17:36:03.171Z,76493.40
2019-03-16T17:38:32.569Z,76500.48
2019-03-16T17:41:04.763Z,76493.40
2019-03-16T17:43:34.093Z,76485.30
2019-03-16T17:46:06.398Z,76489.35
2019-03-16T17:48:35.653Z,76486.31
2019-03-16T17:51:05.141Z,76479.23
2019-03-16T17:53:34.662Z,76479.23
2019-03-16T17:56:04.127Z,76479.23
2019-03-16T17:58:33.268Z,76473.16
2019-03-16T18:01:02.570Z,76484.29
2019-03-16T18:03:34.633Z,76474.17
2019-03-16T18:06:04.674Z,76478.22
2019-03-16T18:08:33.985Z,76485.30
2019-03-16T18:11:03.304Z,76490.36
2019-03-16T18:13:33.312Z,76487.33
2019-03-16T18:16:03.021Z,76480.24
2019-03-16T18:18:32.154Z,76477.20
2019-03-16T18:21:01.320Z,76486.31
2019-03-16T18:23:32.768Z,76483.28
2019-03-16T18:26:01.979Z,76483.28
2019-03-16T18:28:31.128Z,76480.24
2019-03-16T18:31:00.357Z,76483.28
2019-03-16T18:33:29.524Z,76478.22
2019-03-16T18:35:58.711Z,76469.11
2019-03-16T18:38:28.784Z,76475.18
2019-03-16T18:40:58.091Z,76468.09
2019-03-16T18:43:27.255Z,76471.13
2019-03-16T18:45:56.520Z,76470.13
2019-03-16T18:48:25.729Z,76474.17
2019-03-16T18:50:54.949Z,76474.17
2019-03-16T18:53:24.172Z,76467.08
2019-03-16T18:55:53.425Z,76470.13
2019-03-16T18:58:36.315Z,76474.17
2019-03-16T19:00:53.690Z,76471.13
2019-03-16T19:03:22.858Z,76474.17
2019-03-16T19:05:52.128Z,76465.06
2019-03-16T19:08:21.390Z,76468.09
2019-03-16T19:10:53.194Z,76468.09
2019-03-16T19:13:28.563Z,76467.08
2019-03-16T19:15:59.135Z,76474.17
2019-03-16T19:18:28.498Z,76471.13
2019-03-16T19:20:57.726Z,76466.07
2019-03-16T19:23:28.986Z,76469.11
2019-03-16T19:25:58.190Z,76468.09
2019-03-16T19:28:27.411Z,76471.13
2019-03-16T19:30:56.641Z,76468.09
2019-03-16T19:33:25.917Z,76468.09
2019-03-16T19:35:55.922Z,76467.08
2019-03-16T19:38:25.227Z,76462.02
2019-03-16T19:40:54.468Z,76463.03
2019-03-16T19:43:23.753Z,76453.92
2019-03-16T19:45:52.954Z,76456.96
2019-03-16T19:48:23.121Z,76458.98
2019-03-16T19:50:52.403Z,76454.94
2019-03-16T19:53:21.572Z,76451.91
2019-03-16T19:55:50.805Z,76447.86
2019-03-16T19:58:20.131Z,76451.91
2019-03-16T20:00:49.361Z,76456.96
2019-03-16T20:03:18.600Z,76450.89
2019-03-16T20:05:47.806Z,76452.91
2019-03-16T20:08:16.851Z,76458.98
2019-03-16T20:10:46.577Z,76453.92
2019-03-16T20:13:15.794Z,76452.91
2019-03-16T20:15:45.028Z,76453.92
2019-03-16T20:18:14.371Z,76453.92
2019-03-16T20:20:43.743Z,76450.89
2019-03-16T20:23:13.086Z,76454.94
2019-03-16T20:25:42.328Z,76450.89
2019-03-16T20:28:11.569Z,76454.94
2019-03-16T20:30:40.958Z,76446.84
2019-03-16T20:33:10.186Z,76444.82
2019-03-16T20:35:39.436Z,76447.86
2019-03-16T20:38:08.631Z,76444.82
2019-03-16T20:40:37.868Z,76442.80
2019-03-16T20:43:07.081Z,76440.77
2019-03-16T20:45:36.420Z,76433.69
2019-03-16T20:48:10.148Z,76436.72
2019-03-16T20:50:39.365Z,76433.69
2019-03-16T20:53:08.602Z,76436.72
2019-03-16T20:55:42.137Z,76434.70
2019-03-16T20:58:11.403Z,76430.66
2019-03-16T21:00:40.675Z,76437.73
2019-03-16T21:03:15.968Z,76430.66
2019-03-16T21:05:40.741Z,76430.66
2019-03-16T21:08:12.273Z,76430.66
2019-03-16T21:10:41.545Z,76428.63
2019-03-16T21:13:10.878Z,76431.66
2019-03-16T21:15:40.180Z,76429.64
2019-03-16T21:18:09.324Z,76430.66
2019-03-16T21:20:38.574Z,76422.55
2019-03-16T21:23:07.437Z,76424.58
2019-03-16T21:25:36.991Z,76420.53
2019-03-16T21:28:06.410Z,76417.49
2019-03-16T21:30:35.948Z,76420.53
2019-03-16T21:33:05.233Z,76418.50
2019-03-16T21:35:34.444Z,76407.38
2019-03-16T21:38:04.174Z,76415.47
2019-03-16T21:40:36.399Z,76410.41
2019-03-16T21:43:05.601Z,76400.29
2019-03-16T21:45:34.734Z,76406.36
2019-03-16T21:48:03.972Z,76402.31
2019-03-16T21:50:33.236Z,76400.29
2019-03-16T21:53:02.548Z,76394.22
2019-03-16T21:55:31.935Z,76386.13
2019-03-16T21:58:01.151Z,76390.17
2019-03-16T22:00:30.350Z,76382.08
2019-03-16T22:02:59.867Z,76385.11
2019-03-16T22:05:29.108Z,76370.94
2019-03-16T22:07:58.273Z,76355.76
2019-03-16T22:10:28.048Z,76358.80
2019-03-16T22:12:57.462Z,76347.66
2019-03-16T22:15:27.066Z,76335.52
2019-03-16T22:17:56.252Z,76336.53
2019-03-16T22:20:25.483Z,76334.51
2019-03-16T22:22:54.637Z,76320.34
2019-03-16T22:25:23.837Z,76322.36
2019-03-16T22:27:53.067Z,76314.27
2019-03-16T22:30:24.139Z,76305.16
2019-03-16T22:32:53.416Z,76312.24
2019-03-16T22:35:27.235Z,76309.20
2019-03-16T22:37:56.878Z,76306.17
2019-03-16T22:40:26.002Z,76301.11
2019-03-16T22:42:55.205Z,76299.09
2019-03-16T22:45:27.168Z,76284.92
2019-03-16T22:47:57.690Z,76292.00
2019-03-16T22:50:27.335Z,76284.92
2019-03-16T22:52:56.523Z,76277.83
2019-03-16T22:55:27.889Z,76271.77
2019-03-16T22:57:57.302Z,76254.56
2019-03-16T23:00:32.383Z,76252.53
2019-03-16T23:03:01.682Z,76254.56
2019-03-16T23:05:30.930Z,76248.48
2019-03-16T23:08:00.215Z,76239.38
2019-03-16T23:10:31.848Z,76241.41
2019-03-16T23:13:01.059Z,76238.36
2019-03-16T23:15:30.234Z,76231.28
2019-03-16T23:17:59.531Z,76225.21
2019-03-16T23:20:28.760Z,76230.27
2019-03-16T23:22:57.920Z,76217.11
2019-03-16T23:25:27.130Z,76203.95
2019-03-16T23:27:56.416Z,76199.91
2019-03-16T23:30:25.617Z,76193.84
2019-03-16T23:32:54.881Z,76192.83
2019-03-16T23:35:24.373Z,76184.73
2019-03-16T23:37:53.554Z,76187.77
2019-03-16T23:40:22.818Z,76182.70
2019-03-16T23:42:52.805Z,76174.61
2019-03-16T23:45:25.072Z,76178.66
2019-03-16T23:47:56.379Z,76179.67
2019-03-16T23:50:25.570Z,76174.61
2019-03-16T23:52:54.854Z,76162.47
2019-03-16T23:55:24.046Z,76171.58
2019-03-16T23:57:56.352Z,76167.52
